sensor_id;sensor_type;location;lat;lon;timestamp;P1;durP1;ratioP1;P2;durP2;ratioP2
12846;SDS011;6492;48.128;8.320;2022-09-29T00:01:19;3.83;;;2.30;;
12846;SDS011;6492;48.128;8.320;2022-09-29T00:05:21;3.97;;;2.20;;
12846;SDS011;6492;48.128;8.320;2022-09-29T00:09:23;2.23;;;2.00;;
12846;SDS011;6492;48.128;8.320;2022-09-29T00:13:26;3.53;;;2.17;;
12846;SDS011;6492;48.128;8.320;2022-09-29T00:17:28;3.10;;;2.37;;
12846;SDS011;6492;48.128;8.320;2022-09-29T00:21:30;2.83;;;2.40;;
12846;SDS011;6492;48.128;8.320;2022-09-29T00:25:31;2.37;;;2.00;;
12846;SDS011;6492;48.128;8.320;2022-09-29T00:29:35;2.30;;;2.00;;
12846;SDS011;6492;48.128;8.320;2022-09-29T00:38:09;2.30;;;2.10;;
12846;SDS011;6492;48.128;8.320;2022-09-29T00:42:11;4.00;;;2.20;;
12846;SDS011;6492;48.128;8.320;2022-09-29T00:46:14;3.67;;;2.70;;
12846;SDS011;6492;48.128;8.320;2022-09-29T00:50:19;5.07;;;2.00;;
12846;SDS011;6492;48.128;8.320;2022-09-29T00:54:27;2.27;;;2.07;;
12846;SDS011;6492;48.128;8.320;2022-09-29T00:58:37;2.60;;;1.97;;
12846;SDS011;6492;48.128;8.320;2022-09-29T01:02:44;3.20;;;2.90;;
12846;SDS011;6492;48.128;8.320;2022-09-29T01:06:54;4.67;;;3.73;;
12846;SDS011;6492;48.128;8.320;2022-09-29T01:10:57;4.93;;;3.20;;
12846;SDS011;6492;48.128;8.320;2022-09-29T01:15:02;4.07;;;2.70;;
12846;SDS011;6492;48.128;8.320;2022-09-29T01:19:06;3.00;;;2.70;;
12846;SDS011;6492;48.128;8.320;2022-09-29T01:23:20;5.03;;;3.03;;
12846;SDS011;6492;48.128;8.320;2022-09-29T01:32:19;3.27;;;2.97;;
12846;SDS011;6492;48.128;8.320;2022-09-29T01:36:29;2.63;;;2.40;;
12846;SDS011;6492;48.128;8.320;2022-09-29T01:40:43;2.90;;;2.70;;
12846;SDS011;6492;48.128;8.320;2022-09-29T01:44:52;4.33;;;2.73;;
12846;SDS011;6492;48.128;8.320;2022-09-29T01:48:58;2.97;;;2.50;;
12846;SDS011;6492;48.128;8.320;2022-09-29T01:53:03;4.03;;;2.53;;
12846;SDS011;6492;48.128;8.320;2022-09-29T01:57:10;2.23;;;2.00;;
12846;SDS011;6492;48.128;8.320;2022-09-29T02:01:16;3.30;;;2.33;;
12846;SDS011;6492;48.128;8.320;2022-09-29T02:05:23;2.63;;;2.20;;
12846;SDS011;6492;48.128;8.320;2022-09-29T02:09:30;2.93;;;2.27;;
12846;SDS011;6492;48.128;8.320;2022-09-29T02:13:37;2.20;;;2.00;;
12846;SDS011;6492;48.128;8.320;2022-09-29T02:17:42;2.40;;;2.20;;
12846;SDS011;6492;48.128;8.320;2022-09-29T02:21:49;4.00;;;2.43;;
12846;SDS011;6492;48.128;8.320;2022-09-29T02:25:53;4.07;;;2.37;;
12846;SDS011;6492;48.128;8.320;2022-09-29T02:29:57;2.73;;;2.30;;
12846;SDS011;6492;48.128;8.320;2022-09-29T02:33:59;3.07;;;2.20;;
12846;SDS011;6492;48.128;8.320;2022-09-29T02:38:04;2.57;;;2.27;;
12846;SDS011;6492;48.128;8.320;2022-09-29T02:42:16;2.40;;;2.10;;
12846;SDS011;6492;48.128;8.320;2022-09-29T02:46:30;1.77;;;1.67;;
12846;SDS011;6492;48.128;8.320;2022-09-29T02:50:51;2.27;;;2.07;;
12846;SDS011;6492;48.128;8.320;2022-09-29T02:55:06;5.13;;;2.47;;
12846;SDS011;6492;48.128;8.320;2022-09-29T02:59:14;3.80;;;3.17;;
12846;SDS011;6492;48.128;8.320;2022-09-29T03:03:19;4.50;;;3.60;;
12846;SDS011;6492;48.128;8.320;2022-09-29T03:07:21;4.77;;;3.80;;
12846;SDS011;6492;48.128;8.320;2022-09-29T03:11:24;3.60;;;3.30;;
12846;SDS011;6492;48.128;8.320;2022-09-29T03:15:26;5.73;;;4.10;;
12846;SDS011;6492;48.128;8.320;2022-09-29T03:19:28;3.23;;;2.93;;
12846;SDS011;6492;48.128;8.320;2022-09-29T03:23:29;5.10;;;2.97;;
12846;SDS011;6492;48.128;8.320;2022-09-29T03:27:33;3.33;;;3.03;;
12846;SDS011;6492;48.128;8.320;2022-09-29T03:31:37;3.37;;;2.60;;
12846;SDS011;6492;48.128;8.320;2022-09-29T03:35:40;3.17;;;2.30;;
12846;SDS011;6492;48.128;8.320;2022-09-29T03:39:42;3.47;;;2.53;;
12846;SDS011;6492;48.128;8.320;2022-09-29T03:43:45;2.40;;;2.20;;
12846;SDS011;6492;48.128;8.320;2022-09-29T03:47:47;3.23;;;2.27;;
12846;SDS011;6492;48.128;8.320;2022-09-29T03:51:49;6.20;;;2.90;;
12846;SDS011;6492;48.128;8.320;2022-09-29T03:55:51;3.87;;;2.90;;
12846;SDS011;6492;48.128;8.320;2022-09-29T03:59:54;3.27;;;2.97;;
12846;SDS011;6492;48.128;8.320;2022-09-29T04:03:56;4.33;;;3.40;;
12846;SDS011;6492;48.128;8.320;2022-09-29T04:07:58;5.13;;;3.07;;
12846;SDS011;6492;48.128;8.320;2022-09-29T04:12:00;4.00;;;3.23;;
12846;SDS011;6492;48.128;8.320;2022-09-29T04:16:04;4.70;;;3.70;;
12846;SDS011;6492;48.128;8.320;2022-09-29T04:20:06;3.97;;;3.43;;
12846;SDS011;6492;48.128;8.320;2022-09-29T04:24:09;4.33;;;3.30;;
12846;SDS011;6492;48.128;8.320;2022-09-29T04:28:11;4.30;;;3.80;;
12846;SDS011;6492;48.128;8.320;2022-09-29T04:32:20;3.87;;;3.43;;
12846;SDS011;6492;48.128;8.320;2022-09-29T04:36:23;5.60;;;3.73;;
12846;SDS011;6492;48.128;8.320;2022-09-29T04:40:25;3.63;;;3.30;;
12846;SDS011;6492;48.128;8.320;2022-09-29T04:44:27;4.30;;;3.03;;
12846;SDS011;6492;48.128;8.320;2022-09-29T04:48:30;7.30;;;4.30;;
12846;SDS011;6492;48.128;8.320;2022-09-29T04:52:32;4.53;;;3.70;;
12846;SDS011;6492;48.128;8.320;2022-09-29T04:56:34;5.37;;;4.00;;
12846;SDS011;6492;48.128;8.320;2022-09-29T05:00:35;7.90;;;5.93;;
12846;SDS011;6492;48.128;8.320;2022-09-29T05:04:39;5.00;;;4.20;;
12846;SDS011;6492;48.128;8.320;2022-09-29T05:08:41;4.90;;;4.07;;
12846;SDS011;6492;48.128;8.320;2022-09-29T05:12:46;4.90;;;4.07;;
12846;SDS011;6492;48.128;8.320;2022-09-29T05:16:48;4.57;;;3.97;;
12846;SDS011;6492;48.128;8.320;2022-09-29T05:20:52;5.00;;;4.17;;
12846;SDS011;6492;48.128;8.320;2022-09-29T05:24:59;5.77;;;4.37;;
12846;SDS011;6492;48.128;8.320;2022-09-29T05:29:17;4.10;;;3.53;;
12846;SDS011;6492;48.128;8.320;2022-09-29T05:33:19;4.33;;;3.63;;
12846;SDS011;6492;48.128;8.320;2022-09-29T05:37:22;5.67;;;4.07;;
12846;SDS011;6492;48.128;8.320;2022-09-29T05:41:24;5.67;;;4.00;;
12846;SDS011;6492;48.128;8.320;2022-09-29T05:45:26;9.03;;;8.17;;
12846;SDS011;6492;48.128;8.320;2022-09-29T05:49:27;6.73;;;5.73;;
12846;SDS011;6492;48.128;8.320;2022-09-29T05:53:33;5.40;;;4.30;;
12846;SDS011;6492;48.128;8.320;2022-09-29T05:57:35;4.40;;;3.77;;
12846;SDS011;6492;48.128;8.320;2022-09-29T06:01:37;4.77;;;4.03;;
12846;SDS011;6492;48.128;8.320;2022-09-29T06:05:38;4.20;;;3.80;;
12846;SDS011;6492;48.128;8.320;2022-09-29T06:09:42;7.97;;;4.03;;
12846;SDS011;6492;48.128;8.320;2022-09-29T06:13:45;6.30;;;4.87;;
12846;SDS011;6492;48.128;8.320;2022-09-29T06:17:53;8.40;;;5.40;;
12846;SDS011;6492;48.128;8.320;2022-09-29T06:21:55;12.33;;;6.60;;
12846;SDS011;6492;48.128;8.320;2022-09-29T06:25:59;10.93;;;7.80;;
12846;SDS011;6492;48.128;8.320;2022-09-29T06:30:03;12.53;;;7.67;;
12846;SDS011;6492;48.128;8.320;2022-09-29T06:34:08;19.80;;;10.50;;
12846;SDS011;6492;48.128;8.320;2022-09-29T06:38:10;19.10;;;9.57;;
12846;SDS011;6492;48.128;8.320;2022-09-29T06:42:13;13.50;;;8.23;;
12846;SDS011;6492;48.128;8.320;2022-09-29T06:46:15;14.20;;;9.57;;
12846;SDS011;6492;48.128;8.320;2022-09-29T06:50:17;9.70;;;6.63;;
12846;SDS011;6492;48.128;8.320;2022-09-29T06:54:19;8.70;;;6.17;;
12846;SDS011;6492;48.128;8.320;2022-09-29T06:58:25;8.63;;;5.57;;
12846;SDS011;6492;48.128;8.320;2022-09-29T07:02:28;6.87;;;5.47;;
12846;SDS011;6492;48.128;8.320;2022-09-29T07:06:30;6.37;;;4.53;;
12846;SDS011;6492;48.128;8.320;2022-09-29T07:10:31;8.53;;;5.60;;
12846;SDS011;6492;48.128;8.320;2022-09-29T07:14:35;5.97;;;4.77;;
12846;SDS011;6492;48.128;8.320;2022-09-29T07:18:38;7.93;;;5.03;;
12846;SDS011;6492;48.128;8.320;2022-09-29T07:22:44;5.50;;;3.77;;
12846;SDS011;6492;48.128;8.320;2022-09-29T07:26:46;5.60;;;4.23;;
12846;SDS011;6492;48.128;8.320;2022-09-29T07:30:58;3.83;;;3.43;;
12846;SDS011;6492;48.128;8.320;2022-09-29T07:35:00;3.40;;;3.10;;
12846;SDS011;6492;48.128;8.320;2022-09-29T07:39:02;4.07;;;2.80;;
12846;SDS011;6492;48.128;8.320;2022-09-29T07:43:04;3.57;;;3.00;;
12846;SDS011;6492;48.128;8.320;2022-09-29T07:47:07;5.03;;;3.43;;
12846;SDS011;6492;48.128;8.320;2022-09-29T07:51:10;4.43;;;3.13;;
12846;SDS011;6492;48.128;8.320;2022-09-29T07:55:14;9.80;;;8.07;;
12846;SDS011;6492;48.128;8.320;2022-09-29T07:59:16;9.47;;;6.97;;
12846;SDS011;6492;48.128;8.320;2022-09-29T08:03:19;7.30;;;6.13;;
12846;SDS011;6492;48.128;8.320;2022-09-29T08:07:21;4.33;;;3.93;;
12846;SDS011;6492;48.128;8.320;2022-09-29T08:11:23;4.73;;;4.23;;
12846;SDS011;6492;48.128;8.320;2022-09-29T08:15:25;4.10;;;3.20;;
12846;SDS011;6492;48.128;8.320;2022-09-29T08:19:28;4.60;;;3.80;;
12846;SDS011;6492;48.128;8.320;2022-09-29T08:23:33;4.73;;;4.10;;
12846;SDS011;6492;48.128;8.320;2022-09-29T08:27:36;4.53;;;3.47;;
12846;SDS011;6492;48.128;8.320;2022-09-29T08:31:38;5.73;;;4.40;;
12846;SDS011;6492;48.128;8.320;2022-09-29T08:35:42;3.60;;;2.90;;
12846;SDS011;6492;48.128;8.320;2022-09-29T08:39:44;2.87;;;2.40;;
12846;SDS011;6492;48.128;8.320;2022-09-29T08:43:46;3.40;;;2.70;;
12846;SDS011;6492;48.128;8.320;2022-09-29T08:47:51;3.90;;;3.50;;
12846;SDS011;6492;48.128;8.320;2022-09-29T08:51:59;4.27;;;3.20;;
12846;SDS011;6492;48.128;8.320;2022-09-29T08:56:06;3.10;;;2.80;;
12846;SDS011;6492;48.128;8.320;2022-09-29T09:00:16;4.13;;;3.73;;
12846;SDS011;6492;48.128;8.320;2022-09-29T09:04:26;3.63;;;2.70;;
12846;SDS011;6492;48.128;8.320;2022-09-29T09:08:43;2.50;;;2.30;;
12846;SDS011;6492;48.128;8.320;2022-09-29T09:12:58;3.97;;;2.27;;
12846;SDS011;6492;48.128;8.320;2022-09-29T09:17:09;2.30;;;2.10;;
12846;SDS011;6492;48.128;8.320;2022-09-29T09:21:23;3.53;;;2.17;;
12846;SDS011;6492;48.128;8.320;2022-09-29T09:25:32;2.70;;;2.50;;
12846;SDS011;6492;48.128;8.320;2022-09-29T09:29:36;2.30;;;2.10;;
12846;SDS011;6492;48.128;8.320;2022-09-29T09:33:43;5.27;;;4.87;;
12846;SDS011;6492;48.128;8.320;2022-09-29T09:37:50;1.90;;;1.80;;
12846;SDS011;6492;48.128;8.320;2022-09-29T09:41:55;1.50;;;1.40;;
12846;SDS011;6492;48.128;8.320;2022-09-29T09:45:59;2.17;;;1.93;;
12846;SDS011;6492;48.128;8.320;2022-09-29T09:50:12;2.53;;;1.97;;
12846;SDS011;6492;48.128;8.320;2022-09-29T09:54:19;1.87;;;1.73;;
12846;SDS011;6492;48.128;8.320;2022-09-29T09:58:42;2.00;;;1.80;;
12846;SDS011;6492;48.128;8.320;2022-09-29T10:03:00;1.60;;;1.50;;
12846;SDS011;6492;48.128;8.320;2022-09-29T10:07:04;3.40;;;3.10;;
12846;SDS011;6492;48.128;8.320;2022-09-29T10:11:11;3.20;;;2.67;;
12846;SDS011;6492;48.128;8.320;2022-09-29T10:15:23;3.17;;;2.07;;
12846;SDS011;6492;48.128;8.320;2022-09-29T10:23:55;1.70;;;1.60;;
12846;SDS011;6492;48.128;8.320;2022-09-29T10:27:59;2.70;;;1.50;;
12846;SDS011;6492;48.128;8.320;2022-09-29T10:32:04;1.97;;;1.53;;
12846;SDS011;6492;48.128;8.320;2022-09-29T10:36:08;2.10;;;1.67;;
12846;SDS011;6492;48.128;8.320;2022-09-29T10:40:13;1.47;;;1.37;;
12846;SDS011;6492;48.128;8.320;2022-09-29T10:44:20;1.43;;;1.30;;
12846;SDS011;6492;48.128;8.320;2022-09-29T10:48:24;1.67;;;1.30;;
12846;SDS011;6492;48.128;8.320;2022-09-29T10:52:27;1.70;;;1.50;;
12846;SDS011;6492;48.128;8.320;2022-09-29T10:56:29;1.00;;;0.90;;
12846;SDS011;6492;48.128;8.320;2022-09-29T11:00:31;2.30;;;2.10;;
12846;SDS011;6492;48.128;8.320;2022-09-29T11:04:37;1.53;;;1.37;;
12846;SDS011;6492;48.128;8.320;2022-09-29T11:08:56;1.40;;;1.30;;
12846;SDS011;6492;48.128;8.320;2022-09-29T11:17:37;1.57;;;1.20;;
12846;SDS011;6492;48.128;8.320;2022-09-29T11:26:23;1.43;;;1.33;;
12846;SDS011;6492;48.128;8.320;2022-09-29T11:35:14;1.47;;;1.37;;
12846;SDS011;6492;48.128;8.320;2022-09-29T11:39:32;2.00;;;1.80;;
12846;SDS011;6492;48.128;8.320;2022-09-29T11:43:45;1.97;;;1.00;;
12846;SDS011;6492;48.128;8.320;2022-09-29T11:47:56;1.10;;;1.00;;
12846;SDS011;6492;48.128;8.320;2022-09-29T11:52:35;1.00;;;1.00;;
12846;SDS011;6492;48.128;8.320;2022-09-29T11:56:54;1.80;;;1.30;;
12846;SDS011;6492;48.128;8.320;2022-09-29T12:01:06;1.10;;;1.10;;
12846;SDS011;6492;48.128;8.320;2022-09-29T12:05:20;3.63;;;3.23;;
12846;SDS011;6492;48.128;8.320;2022-09-29T12:14:21;1.03;;;1.00;;
12846;SDS011;6492;48.128;8.320;2022-09-29T12:18:29;2.50;;;1.07;;
12846;SDS011;6492;48.128;8.320;2022-09-29T12:22:38;0.80;;;0.80;;
12846;SDS011;6492;48.128;8.320;2022-09-29T12:26:42;1.73;;;0.97;;
12846;SDS011;6492;48.128;8.320;2022-09-29T12:30:49;1.13;;;0.97;;
12846;SDS011;6492;48.128;8.320;2022-09-29T12:43:53;0.80;;;0.80;;
12846;SDS011;6492;48.128;8.320;2022-09-29T12:48:16;1.77;;;0.80;;
12846;SDS011;6492;48.128;8.320;2022-09-29T12:52:30;0.63;;;0.63;;
12846;SDS011;6492;48.128;8.320;2022-09-29T12:56:52;0.57;;;0.57;;
12846;SDS011;6492;48.128;8.320;2022-09-29T13:01:02;0.90;;;0.80;;
12846;SDS011;6492;48.128;8.320;2022-09-29T13:05:25;0.60;;;0.60;;
12846;SDS011;6492;48.128;8.320;2022-09-29T13:09:50;0.70;;;0.70;;
12846;SDS011;6492;48.128;8.320;2022-09-29T13:14:06;5.77;;;2.40;;
12846;SDS011;6492;48.128;8.320;2022-09-29T13:18:38;1.13;;;0.90;;
12846;SDS011;6492;48.128;8.320;2022-09-29T13:23:03;1.13;;;1.03;;
12846;SDS011;6492;48.128;8.320;2022-09-29T13:27:28;2.27;;;1.70;;
12846;SDS011;6492;48.128;8.320;2022-09-29T13:31:34;3.40;;;2.93;;
12846;SDS011;6492;48.128;8.320;2022-09-29T13:35:40;1.67;;;1.30;;
12846;SDS011;6492;48.128;8.320;2022-09-29T13:39:51;0.80;;;0.80;;
12846;SDS011;6492;48.128;8.320;2022-09-29T13:44:04;3.07;;;2.43;;
12846;SDS011;6492;48.128;8.320;2022-09-29T13:48:33;1.33;;;1.23;;
12846;SDS011;6492;48.128;8.320;2022-09-29T13:52:49;4.17;;;2.60;;
12846;SDS011;6492;48.128;8.320;2022-09-29T13:56:58;1.07;;;0.97;;
12846;SDS011;6492;48.128;8.320;2022-09-29T14:01:30;1.07;;;1.00;;
12846;SDS011;6492;48.128;8.320;2022-09-29T14:05:35;0.93;;;0.90;;
12846;SDS011;6492;48.128;8.320;2022-09-29T14:09:46;2.87;;;1.23;;
12846;SDS011;6492;48.128;8.320;2022-09-29T14:13:54;1.13;;;1.03;;
12846;SDS011;6492;48.128;8.320;2022-09-29T14:17:59;1.00;;;1.00;;
12846;SDS011;6492;48.128;8.320;2022-09-29T14:26:42;3.07;;;2.57;;
12846;SDS011;6492;48.128;8.320;2022-09-29T14:30:47;2.27;;;1.80;;
12846;SDS011;6492;48.128;8.320;2022-09-29T14:34:52;2.30;;;1.93;;
12846;SDS011;6492;48.128;8.320;2022-09-29T14:38:55;3.00;;;2.10;;
12846;SDS011;6492;48.128;8.320;2022-09-29T14:43:05;2.73;;;2.50;;
12846;SDS011;6492;48.128;8.320;2022-09-29T14:47:20;1.90;;;1.60;;
12846;SDS011;6492;48.128;8.320;2022-09-29T14:51:50;2.33;;;1.93;;
12846;SDS011;6492;48.128;8.320;2022-09-29T14:56:03;5.30;;;2.93;;
12846;SDS011;6492;48.128;8.320;2022-09-29T15:00:15;1.73;;;1.50;;
12846;SDS011;6492;48.128;8.320;2022-09-29T15:04:20;2.13;;;1.97;;
12846;SDS011;6492;48.128;8.320;2022-09-29T15:08:25;3.67;;;2.83;;
12846;SDS011;6492;48.128;8.320;2022-09-29T15:12:31;2.47;;;2.00;;
12846;SDS011;6492;48.128;8.320;2022-09-29T15:16:37;1.90;;;1.40;;
12846;SDS011;6492;48.128;8.320;2022-09-29T15:20:52;1.70;;;1.60;;
12846;SDS011;6492;48.128;8.320;2022-09-29T15:25:01;3.07;;;2.20;;
12846;SDS011;6492;48.128;8.320;2022-09-29T15:29:18;1.90;;;1.80;;
12846;SDS011;6492;48.128;8.320;2022-09-29T15:33:21;2.07;;;1.87;;
12846;SDS011;6492;48.128;8.320;2022-09-29T15:37:26;2.47;;;2.10;;
12846;SDS011;6492;48.128;8.320;2022-09-29T15:41:52;2.40;;;2.20;;
12846;SDS011;6492;48.128;8.320;2022-09-29T15:46:01;2.63;;;2.20;;
12846;SDS011;6492;48.128;8.320;2022-09-29T15:50:23;3.70;;;2.47;;
12846;SDS011;6492;48.128;8.320;2022-09-29T15:54:32;5.60;;;3.93;;
12846;SDS011;6492;48.128;8.320;2022-09-29T15:58:42;3.87;;;3.43;;
12846;SDS011;6492;48.128;8.320;2022-09-29T16:02:47;2.67;;;2.47;;
12846;SDS011;6492;48.128;8.320;2022-09-29T16:06:53;3.13;;;2.87;;
12846;SDS011;6492;48.128;8.320;2022-09-29T16:10:57;1.87;;;1.60;;
12846;SDS011;6492;48.128;8.320;2022-09-29T16:15:02;2.63;;;1.73;;
12846;SDS011;6492;48.128;8.320;2022-09-29T16:19:08;1.80;;;1.70;;
12846;SDS011;6492;48.128;8.320;2022-09-29T16:23:16;3.57;;;3.27;;
12846;SDS011;6492;48.128;8.320;2022-09-29T16:31:52;20.03;;;12.70;;
12846;SDS011;6492;48.128;8.320;2022-09-29T16:36:09;4.03;;;3.60;;
12846;SDS011;6492;48.128;8.320;2022-09-29T16:40:16;2.63;;;2.43;;
12846;SDS011;6492;48.128;8.320;2022-09-29T16:44:31;2.00;;;1.80;;
12846;SDS011;6492;48.128;8.320;2022-09-29T16:48:38;3.43;;;3.13;;
12846;SDS011;6492;48.128;8.320;2022-09-29T16:52:44;2.70;;;2.50;;
12846;SDS011;6492;48.128;8.320;2022-09-29T16:56:48;2.77;;;2.57;;
12846;SDS011;6492;48.128;8.320;2022-09-29T17:01:22;3.33;;;2.93;;
12846;SDS011;6492;48.128;8.320;2022-09-29T17:05:24;3.70;;;3.30;;
12846;SDS011;6492;48.128;8.320;2022-09-29T17:09:27;5.00;;;3.47;;
12846;SDS011;6492;48.128;8.320;2022-09-29T17:22:37;2.30;;;2.10;;
12846;SDS011;6492;48.128;8.320;2022-09-29T17:26:50;1.37;;;1.27;;
12846;SDS011;6492;48.128;8.320;2022-09-29T17:31:30;2.70;;;1.63;;
12846;SDS011;6492;48.128;8.320;2022-09-29T17:35:34;2.97;;;2.77;;
12846;SDS011;6492;48.128;8.320;2022-09-29T17:39:40;3.20;;;1.60;;
12846;SDS011;6492;48.128;8.320;2022-09-29T17:43:42;3.03;;;2.73;;
12846;SDS011;6492;48.128;8.320;2022-09-29T17:47:58;1.70;;;1.60;;
12846;SDS011;6492;48.128;8.320;2022-09-29T17:52:13;1.80;;;1.70;;
12846;SDS011;6492;48.128;8.320;2022-09-29T17:56:18;1.70;;;1.60;;
12846;SDS011;6492;48.128;8.320;2022-09-29T18:04:38;1.50;;;1.40;;
12846;SDS011;6492;48.128;8.320;2022-09-29T18:08:43;2.30;;;2.10;;
12846;SDS011;6492;48.128;8.320;2022-09-29T18:12:51;2.03;;;1.83;;
12846;SDS011;6492;48.128;8.320;2022-09-29T18:21:15;1.53;;;1.43;;
12846;SDS011;6492;48.128;8.320;2022-09-29T18:25:26;1.57;;;1.40;;
12846;SDS011;6492;48.128;8.320;2022-09-29T18:29:29;1.60;;;1.50;;
12846;SDS011;6492;48.128;8.320;2022-09-29T18:33:32;1.40;;;1.30;;
12846;SDS011;6492;48.128;8.320;2022-09-29T18:37:34;2.30;;;1.20;;
12846;SDS011;6492;48.128;8.320;2022-09-29T18:41:37;1.30;;;1.20;;
12846;SDS011;6492;48.128;8.320;2022-09-29T18:45:45;0.83;;;0.83;;
12846;SDS011;6492;48.128;8.320;2022-09-29T18:49:48;1.93;;;1.50;;
12846;SDS011;6492;48.128;8.320;2022-09-29T18:53:50;0.80;;;0.80;;
12846;SDS011;6492;48.128;8.320;2022-09-29T18:57:54;1.20;;;1.10;;
12846;SDS011;6492;48.128;8.320;2022-09-29T19:01:59;1.00;;;1.00;;
12846;SDS011;6492;48.128;8.320;2022-09-29T19:06:01;0.90;;;0.90;;
12846;SDS011;6492;48.128;8.320;2022-09-29T19:10:04;0.87;;;0.87;;
12846;SDS011;6492;48.128;8.320;2022-09-29T19:14:07;1.33;;;1.13;;
12846;SDS011;6492;48.128;8.320;2022-09-29T19:18:09;1.07;;;0.97;;
12846;SDS011;6492;48.128;8.320;2022-09-29T19:22:16;1.30;;;1.20;;
12846;SDS011;6492;48.128;8.320;2022-09-29T19:26:19;1.80;;;1.10;;
12846;SDS011;6492;48.128;8.320;2022-09-29T19:30:24;0.90;;;0.90;;
12846;SDS011;6492;48.128;8.320;2022-09-29T19:34:26;1.77;;;1.50;;
12846;SDS011;6492;48.128;8.320;2022-09-29T19:38:32;1.10;;;1.00;;
12846;SDS011;6492;48.128;8.320;2022-09-29T19:42:35;1.23;;;1.10;;
12846;SDS011;6492;48.128;8.320;2022-09-29T19:46:38;1.50;;;1.40;;
12846;SDS011;6492;48.128;8.320;2022-09-29T19:50:40;1.80;;;1.70;;
12846;SDS011;6492;48.128;8.320;2022-09-29T19:55:00;1.60;;;1.47;;
12846;SDS011;6492;48.128;8.320;2022-09-29T19:59:10;1.70;;;1.60;;
12846;SDS011;6492;48.128;8.320;2022-09-29T20:03:15;1.87;;;1.73;;
12846;SDS011;6492;48.128;8.320;2022-09-29T20:07:21;1.60;;;1.50;;
12846;SDS011;6492;48.128;8.320;2022-09-29T20:11:23;1.47;;;1.37;;
12846;SDS011;6492;48.128;8.320;2022-09-29T20:15:25;1.90;;;1.70;;
12846;SDS011;6492;48.128;8.320;2022-09-29T20:19:29;1.37;;;1.27;;
12846;SDS011;6492;48.128;8.320;2022-09-29T20:23:31;5.30;;;2.10;;
12846;SDS011;6492;48.128;8.320;2022-09-29T20:27:33;2.60;;;2.20;;
12846;SDS011;6492;48.128;8.320;2022-09-29T20:31:35;2.03;;;1.80;;
12846;SDS011;6492;48.128;8.320;2022-09-29T20:35:39;2.80;;;2.40;;
12846;SDS011;6492;48.128;8.320;2022-09-29T20:39:53;2.93;;;2.43;;
12846;SDS011;6492;48.128;8.320;2022-09-29T20:44:01;5.67;;;3.80;;
12846;SDS011;6492;48.128;8.320;2022-09-29T20:48:03;4.90;;;3.33;;
12846;SDS011;6492;48.128;8.320;2022-09-29T20:52:06;4.40;;;3.77;;
12846;SDS011;6492;48.128;8.320;2022-09-29T20:56:09;4.30;;;3.70;;
12846;SDS011;6492;48.128;8.320;2022-09-29T21:00:15;3.70;;;3.00;;
12846;SDS011;6492;48.128;8.320;2022-09-29T21:04:17;3.20;;;2.90;;
12846;SDS011;6492;48.128;8.320;2022-09-29T21:08:22;2.90;;;2.60;;
12846;SDS011;6492;48.128;8.320;2022-09-29T21:12:26;2.97;;;2.53;;
12846;SDS011;6492;48.128;8.320;2022-09-29T21:16:27;2.23;;;2.00;;
12846;SDS011;6492;48.128;8.320;2022-09-29T21:20:29;1.97;;;1.80;;
12846;SDS011;6492;48.128;8.320;2022-09-29T21:24:32;2.00;;;1.80;;
12846;SDS011;6492;48.128;8.320;2022-09-29T21:28:38;4.10;;;3.60;;
12846;SDS011;6492;48.128;8.320;2022-09-29T21:32:41;4.80;;;4.20;;
12846;SDS011;6492;48.128;8.320;2022-09-29T21:36:43;4.53;;;3.30;;
12846;SDS011;6492;48.128;8.320;2022-09-29T21:40:46;3.87;;;3.20;;
12846;SDS011;6492;48.128;8.320;2022-09-29T21:44:48;3.97;;;3.53;;
12846;SDS011;6492;48.128;8.320;2022-09-29T21:48:50;3.60;;;3.10;;
12846;SDS011;6492;48.128;8.320;2022-09-29T21:52:52;4.03;;;3.50;;
12846;SDS011;6492;48.128;8.320;2022-09-29T21:56:55;3.77;;;3.20;;
12846;SDS011;6492;48.128;8.320;2022-09-29T22:00:57;5.80;;;4.43;;
12846;SDS011;6492;48.128;8.320;2022-09-29T22:04:59;4.47;;;3.93;;
12846;SDS011;6492;48.128;8.320;2022-09-29T22:09:01;4.03;;;3.63;;
12846;SDS011;6492;48.128;8.320;2022-09-29T22:13:05;4.83;;;3.40;;
12846;SDS011;6492;48.128;8.320;2022-09-29T22:17:07;3.50;;;3.20;;
12846;SDS011;6492;48.128;8.320;2022-09-29T22:21:10;3.77;;;3.00;;
12846;SDS011;6492;48.128;8.320;2022-09-29T22:25:13;3.90;;;3.03;;
12846;SDS011;6492;48.128;8.320;2022-09-29T22:29:16;3.50;;;3.20;;
12846;SDS011;6492;48.128;8.320;2022-09-29T22:33:19;3.20;;;2.90;;
12846;SDS011;6492;48.128;8.320;2022-09-29T22:37:21;4.13;;;3.30;;
12846;SDS011;6492;48.128;8.320;2022-09-29T22:41:26;3.20;;;2.90;;
12846;SDS011;6492;48.128;8.320;2022-09-29T22:45:29;3.13;;;2.50;;
12846;SDS011;6492;48.128;8.320;2022-09-29T22:49:32;3.80;;;3.13;;
12846;SDS011;6492;48.128;8.320;2022-09-29T22:53:33;3.67;;;3.10;;
12846;SDS011;6492;48.128;8.320;2022-09-29T22:57:36;3.57;;;3.27;;
12846;SDS011;6492;48.128;8.320;2022-09-29T23:01:40;2.80;;;2.60;;
12846;SDS011;6492;48.128;8.320;2022-09-29T23:05:42;4.43;;;3.40;;
12846;SDS011;6492;48.128;8.320;2022-09-29T23:09:44;3.30;;;3.00;;
12846;SDS011;6492;48.128;8.320;2022-09-29T23:13:46;4.50;;;2.90;;
12846;SDS011;6492;48.128;8.320;2022-09-29T23:17:49;5.37;;;3.60;;
12846;SDS011;6492;48.128;8.320;2022-09-29T23:21:51;3.57;;;3.00;;
12846;SDS011;6492;48.128;8.320;2022-09-29T23:25:53;2.77;;;2.57;;
12846;SDS011;6492;48.128;8.320;2022-09-29T23:29:55;3.13;;;2.80;;
12846;SDS011;6492;48.128;8.320;2022-09-29T23:33:59;3.30;;;2.70;;
12846;SDS011;6492;48.128;8.320;2022-09-29T23:38:01;4.10;;;3.70;;
12846;SDS011;6492;48.128;8.320;2022-09-29T23:42:20;3.70;;;3.30;;
12846;SDS011;6492;48.128;8.320;2022-09-29T23:46:23;4.73;;;3.97;;
12846;SDS011;6492;48.128;8.320;2022-09-29T23:50:27;4.57;;;3.47;;
12846;SDS011;6492;48.128;8.320;2022-09-29T23:54:31;4.43;;;3.80;;
12846;SDS011;6492;48.128;8.320;2022-09-29T23:58:33;3.93;;;3.53;;
